Grande Prairie Airport

CYQU | YQU

Grande Prairie , Alberta , Canada

Saturday, September 21st, 2019 | 05:32

Weather

CYQU 211100Z 24004KT 25SM SCT150 10/05 A2981 RMK AC3 SLP105 DENSITY ALT 2300FT

Charts

No Charts Available

Gates

31 Available

Runways

2 Available

Events

No events for this airport


New event